To NAV CANADA Home Page Login to a new session Search on AWWS site Feedback and Comments Disclaimer Vers la page française équivalente Tips FAQ What's new on the site To the Forecasts and Observations / NOTAM section To "File a Flight Plan" website Publications and other links Update of the User's profile FIC Telephone Numbers My Weather Data Folder Route Weather Data Regional Weather Data Local Weather Data To the Forecasts and Observations / NOTAM section
Request Generated 08/29/2016 at 00:06:57 UTC . Weather information available at that time is displayed.

METAR/TAF

MAYO/YT    

METAR CYMA 290000Z 03010KT 330V050 20SM SCT055TCU BKN070 BKN090 18/02
A3007 RMK TCU4AC1AC1 AC TR CLIMAT 18.1/13.3/0.0 SLP198 DENSITY ALT
2100FT=
METAR CYMA 282300Z 34009G15KT 20SM SCT055TCU BKN090 17/01 A3008 RMK
TCU4AC1 SLP201 DENSITY ALT 2100FT=
METAR CYMA 282200Z 02008G18KT 340V050 20SM SCT055TCU BKN090 17/02
A3009 RMK TCU4AC1 SLP206 DENSITY ALT 2000FT=

TAF CYMA 282338Z 2900/2912 36010KT P6SM SCT060 BKN100 TEMPO 2900/2906
BKN060
FM290800 02008KT P6SM FEW060
RMK NXT FCST BY 290600Z=
Your time UTC time
Weather data provided by Environment Canada and NAV CANADA